Oskaloosa, IA

3:04 PM CDT on April 24, 2017 (GMT -0500)
Oskaloosa Municipal

Weather History for KOOA - January, 2014

Change the Weather History Date:

Thursday, January 30, 2014

  Actual Average (KOTM) Record (KOTM)
Temperature  
Mean Temperature 26 °F -  
Max Temperature 39 °F 32 °F 65 °F (2012)
Min Temperature 12 °F 14 °F -17 °F (1936)
Degree Days  
Heating Degree Days 40    
Moisture  
Dew Point 13 °F    
Average Humidity 55    
Maximum Humidity 79    
Minimum Humidity 35    
Precipitation  
Precipitation 0.00 in - - ()
Sea Level Pressure  
Sea Level Pressure 29.74 in    
Wind  
Wind Speed 22 mph (WSW)    
Max Wind Speed 37 mph    
Max Gust Speed 46 mph    
Visibility 10 miles    
Events Snow    
Averages and records for this station are not official NWS values.
T = Trace of Precipitation, MM = Missing Value Source: NWS Daily Summary

Daily Weather History Graph

Daily Weather History Graph

Search for Another Location

Airport or City:

Trip Planner

Search our weather history database for the weather conditions in past years. The results will help you decide how hot, cold, wet, or windy it might be!

Date:

Astronomy

Jan. 30, 2014 Rise Set
Actual Time 7:22 AM CST 5:24 PM CST
Civil Twilight 6:53 AM CST 5:53 PM CST
Nautical Twilight 6:20 AM CST 6:26 PM CST
Astronomical Twilight 5:48 AM CST 6:59 PM CST
Moon 6:48 AM CST (1/30) 5:37 PM CST (1/30)
Length of Visible Light 10h 59m
Length of Day
10h 01m
Waning Crescent, 0% of the Moon is Illuminated
Jan 30
Waning Crescent
Jan 30
New
Feb 6
First Quarter
Feb 14
Full
Feb 22
Last Quarter

Hourly Weather History & Observations

Time (CST) Temp. Windchill Dew Point Humidity Pressure Visibility Wind Dir Wind Speed Gust Speed Precip Events Conditions
12:15 AM 31.6 °F 19.3 °F 9.3 °F 39% 29.78 in 10.0 mi SSW 20.7 mph 32.2 mph N/A   Clear
12:35 AM 31.6 °F 19.0 °F 9.3 °F 39% 29.77 in 10.0 mi SSW 21.9 mph 28.8 mph N/A   Clear
12:55 AM 31.1 °F 17.4 °F 9.3 °F 40% 29.76 in 10.0 mi SSW 25.3 mph 31.1 mph N/A   Clear
1:15 AM 31.1 °F 17.7 °F 9.3 °F 40% 29.75 in 10.0 mi SSW 24.2 mph 33.4 mph N/A   Clear
1:35 AM 31.1 °F 18.0 °F 9.5 °F 41% 29.74 in 10.0 mi SSW 23.0 mph 27.6 mph N/A   Clear
1:55 AM 31.6 °F 19.0 °F 9.5 °F 40% 29.73 in 10.0 mi SSW 21.9 mph 28.8 mph N/A   Clear
2:15 AM 32.0 °F 19.5 °F 9.5 °F 39% 29.73 in 10.0 mi SSW 21.9 mph 31.1 mph N/A   Clear
2:35 AM 31.8 °F 19.3 °F 9.5 °F 39% 29.72 in 10.0 mi SSW 21.9 mph 32.2 mph N/A   Clear
2:55 AM 32.0 °F 19.5 °F 9.5 °F 39% 29.71 in 10.0 mi SSW 21.9 mph 28.8 mph N/A   Clear
3:15 AM 32.0 °F 19.8 °F 9.3 °F 39% 29.71 in 10.0 mi SSW 20.7 mph 29.9 mph N/A   Clear
3:35 AM 32.0 °F 19.5 °F 9.5 °F 39% 29.69 in 10.0 mi SSW 21.9 mph 28.8 mph N/A   Clear
3:55 AM 32.0 °F 20.1 °F 9.3 °F 39% 29.67 in 10.0 mi SSW 19.6 mph 31.1 mph N/A   Clear
4:15 AM 32.0 °F 19.5 °F 9.3 °F 39% 29.67 in 10.0 mi SSW 21.9 mph 28.8 mph N/A   Clear
4:35 AM 32.2 °F 19.7 °F 9.3 °F 39% 29.67 in 10.0 mi SSW 21.9 mph 31.1 mph N/A   Mostly Cloudy
4:55 AM 32.0 °F 18.9 °F 9.3 °F 39% 29.66 in 10.0 mi SSW 24.2 mph 32.2 mph N/A   Overcast
5:15 AM 32.0 °F 18.4 °F 9.5 °F 39% 29.64 in 10.0 mi South 26.5 mph 31.1 mph N/A   Mostly Cloudy
5:35 AM 32.0 °F 18.6 °F 9.3 °F 39% 29.62 in 10.0 mi SSW 25.3 mph 31.1 mph N/A   Overcast
5:55 AM 32.2 °F 19.1 °F 9.3 °F 39% 29.62 in 10.0 mi South 24.2 mph 32.2 mph N/A   Overcast
6:15 AM 32.2 °F 19.7 °F 9.1 °F 38% 29.62 in 10.0 mi South 21.9 mph 29.9 mph N/A   Overcast
6:35 AM 32.2 °F 19.7 °F 9.0 °F 38% 29.61 in 10.0 mi SSW 21.9 mph 33.4 mph N/A   Overcast
6:55 AM 32.2 °F 20.0 °F 9.0 °F 38% 29.58 in 10.0 mi South 20.7 mph 34.5 mph N/A   Overcast
7:15 AM 32.4 °F 17.2 °F 8.6 °F 37% 29.53 in 10.0 mi South 34.5 mph 40.3 mph N/A   Overcast
7:35 AM 32.9 °F 20.4 °F 8.6 °F 36% 29.58 in 10.0 mi SSW 23.0 mph 31.1 mph N/A   Overcast
7:55 AM 33.1 °F 21.2 °F 8.6 °F 36% 29.59 in 10.0 mi SSW 20.7 mph 31.1 mph N/A   Overcast
8:15 AM 33.1 °F 20.6 °F 8.6 °F 36% 29.57 in 10.0 mi SSW 23.0 mph 36.8 mph N/A   Overcast
8:35 AM 33.4 °F 19.4 °F 8.4 °F 35% 29.56 in 10.0 mi SSW 31.1 mph 39.1 mph N/A   Overcast
8:55 AM 33.8 °F 20.8 °F 8.4 °F 35% 29.57 in 10.0 mi SSW 26.5 mph 36.8 mph N/A   Overcast
9:15 AM 33.8 °F 21.0 °F 8.6 °F 35% 29.59 in 10.0 mi SW 25.3 mph 34.5 mph N/A   Overcast
9:35 AM 32.9 °F 18.9 °F 11.5 °F 41% 29.59 in 10.0 mi SW 29.9 mph 46.0 mph N/A Snow Light Snow
9:55 AM 32.4 °F 16.8 °F 14.5 °F 48% 29.59 in 10.0 mi SW 36.8 mph 44.9 mph N/A   Overcast
10:15 AM 30.9 °F 17.2 °F 20.8 °F 66% 29.60 in 4.0 mi SW 25.3 mph 36.8 mph N/A Snow Light Snow
10:35 AM 30.9 °F 18.1 °F 21.2 °F 67% 29.61 in 10.0 mi SW 21.9 mph 29.9 mph N/A   Overcast
10:55 AM 32.0 °F 18.6 °F 20.3 °F 62% 29.61 in 10.0 mi SW 25.3 mph 33.4 mph N/A   Overcast
11:15 AM 33.3 °F 20.1 °F 19.9 °F 58% 29.61 in 10.0 mi SW 26.5 mph 33.4 mph N/A   Overcast
11:35 AM 34.2 °F 21.3 °F 20.3 °F 57% 29.61 in 10.0 mi SW 26.5 mph 32.2 mph N/A   Overcast
11:55 AM 34.0 °F 22.4 °F 21.0 °F 59% 29.61 in 10.0 mi SW 20.7 mph 31.1 mph N/A   Overcast
12:15 PM 36.1 °F 25.0 °F 21.2 °F 55% 29.60 in 10.0 mi SW 21.9 mph 29.9 mph N/A   Overcast
12:35 PM 36.5 °F 25.7 °F 21.0 °F 54% 29.60 in 10.0 mi SW 20.7 mph 32.2 mph N/A   Overcast
12:55 PM 38.1 °F 27.9 °F 19.8 °F 48% 29.60 in 10.0 mi WSW 20.7 mph 32.2 mph N/A   Overcast
1:15 PM 38.1 °F 27.3 °F 19.6 °F 47% 29.61 in 10.0 mi WSW 23.0 mph 31.1 mph N/A   Overcast
1:35 PM 38.7 °F 28.3 °F 19.4 °F 46% 29.61 in 10.0 mi WSW 21.9 mph 28.8 mph N/A   Overcast
1:55 PM 39.6 °F 29.5 °F 19.9 °F 45% 29.62 in 10.0 mi WSW 21.9 mph 27.6 mph N/A   Overcast
2:15 PM 39.6 °F 29.7 °F 20.1 °F 46% 29.63 in 10.0 mi WSW 20.7 mph 28.8 mph N/A   Mostly Cloudy
2:35 PM 37.4 °F 24.4 °F 25.5 °F 62% 29.66 in 10.0 mi NW 33.4 mph 38.0 mph N/A   Mostly Cloudy
2:55 PM 32.7 °F 21.1 °F 23.4 °F 68% 29.70 in 10.0 mi NW 19.6 mph 32.2 mph N/A   Overcast
3:15 PM 32.0 °F 19.2 °F 22.1 °F 67% 29.72 in 10.0 mi NW 23.0 mph 29.9 mph N/A   Mostly Cloudy
3:35 PM 31.8 °F 19.6 °F 19.9 °F 62% 29.75 in 10.0 mi NW 20.7 mph 28.8 mph N/A   Scattered Clouds
3:55 PM 30.2 °F 18.1 °F 18.9 °F 63% 29.77 in 10.0 mi NW 18.4 mph 24.2 mph N/A   Clear
4:15 PM 30.2 °F 18.1 °F 18.7 °F 62% 29.79 in 10.0 mi NW 18.4 mph - N/A   Clear
4:35 PM 28.6 °F 15.3 °F 17.6 °F 64% 29.80 in 10.0 mi NW 20.7 mph 25.3 mph N/A   Clear
4:55 PM 26.2 °F 14.2 °F 15.8 °F 65% 29.82 in 10.0 mi NW 15.0 mph - N/A   Clear
5:15 PM 24.4 °F 11.0 °F 15.3 °F 68% 29.84 in 10.0 mi NW 17.3 mph - N/A   Clear
5:35 PM 23.2 °F 10.8 °F 14.9 °F 71% 29.85 in 10.0 mi NW 13.8 mph - N/A   Clear
5:55 PM 22.5 °F 11.7 °F 14.9 °F 73% 29.87 in 10.0 mi NNW 10.4 mph - N/A   Clear
6:15 PM 22.1 °F 10.6 °F 14.5 °F 73% 29.88 in 10.0 mi NNW 11.5 mph 19.6 mph N/A   Clear
6:35 PM 21.2 °F 6.8 °F 13.8 °F 73% 29.89 in 10.0 mi NNW 17.3 mph 23.0 mph N/A   Clear
6:55 PM 20.3 °F 7.7 °F 13.5 °F 75% 29.90 in 10.0 mi NW 12.7 mph - N/A   Clear
7:15 PM 19.4 °F 6.6 °F 13.1 °F 76% 29.92 in 10.0 mi NNW 12.7 mph - N/A   Clear
7:35 PM 18.9 °F 6.5 °F 13.1 °F 78% 29.93 in 10.0 mi NNW 11.5 mph - N/A   Clear
7:55 PM 18.3 °F 4.1 °F 12.7 °F 79% 29.93 in 10.0 mi NNW 15.0 mph - N/A   Clear
8:15 PM 17.6 °F 2.2 °F 11.8 °F 78% 29.95 in 10.0 mi NNW 17.3 mph - N/A   Clear
8:35 PM 17.2 °F 2.7 °F 10.9 °F 76% 29.97 in 10.0 mi NW 15.0 mph 19.6 mph N/A   Clear
8:55 PM 16.3 °F 1.6 °F 10.6 °F 78% 29.98 in 10.0 mi NW 15.0 mph 19.6 mph N/A   Clear
9:15 PM 15.8 °F -0.6 °F 9.5 °F 76% 29.99 in 10.0 mi NNW 18.4 mph - N/A   Clear
9:35 PM 14.9 °F -1.8 °F 6.8 °F 70% 30.00 in 10.0 mi NNW 18.4 mph 26.5 mph N/A   Clear
9:55 PM 14.4 °F -1.5 °F 5.9 °F 69% 30.00 in 10.0 mi NNW 16.1 mph - N/A   Clear
10:15 PM 13.8 °F -1.1 °F 5.7 °F 70% 30.01 in 10.0 mi NW 13.8 mph - N/A   Clear
10:35 PM 13.1 °F 0.1 °F 5.5 °F 72% 30.02 in 10.0 mi NW 10.4 mph 18.4 mph N/A   Clear
10:55 PM 12.9 °F -0.2 °F 5.4 °F 72% 30.03 in 10.0 mi NW 10.4 mph - N/A   Clear
11:15 PM 12.7 °F -3.6 °F 5.4 °F 72% 30.02 in 10.0 mi NNW 16.1 mph - N/A   Clear
11:35 PM 12.6 °F -0.6 °F 5.0 °F 72% 30.05 in 10.0 mi NNW 10.4 mph - N/A   Clear
11:55 PM 12.2 °F -2.5 °F 4.8 °F 72% 30.06 in 10.0 mi NW 12.7 mph - N/A   Clear